createdAt,value
2023-04-11T00:00:53.867Z,10.68
2023-04-11T00:05:53.574Z,12.13
2023-04-11T00:10:52.906Z,14.13
2023-04-11T00:15:55.956Z,15.38
2023-04-11T00:20:54.473Z,16.83
2023-04-11T00:25:55.966Z,17.25
2023-04-11T00:30:57.684Z,16.00
2023-04-11T00:35:58.561Z,17.02
2023-04-11T00:40:59.947Z,15.10
2023-04-11T00:46:02.106Z,16.65
2023-04-11T00:51:05.790Z,16.10
2023-04-11T00:56:04.989Z,15.30
2023-04-11T01:01:16.247Z,14.95
2023-04-11T01:06:18.244Z,14.50
2023-04-11T01:11:20.863Z,16.48
2023-04-11T01:16:22.432Z,14.75
2023-04-11T01:21:24.783Z,15.15
2023-04-11T01:26:24.015Z,18.15
2023-04-11T01:31:24.669Z,18.48
2023-04-11T01:36:23.973Z,19.60
2023-04-11T01:41:25.170Z,19.23
2023-04-11T01:46:28.087Z,20.00
2023-04-11T01:51:32.092Z,19.25
2023-04-11T01:56:35.414Z,20.35
2023-04-11T02:01:37.260Z,20.80
2023-04-11T02:06:34.782Z,22.38
2023-04-11T02:11:33.166Z,21.85
2023-04-11T02:16:34.698Z,21.25
2023-04-11T02:21:34.876Z,20.83
2023-04-11T02:26:35.373Z,22.95
2023-04-11T02:31:36.538Z,22.27
2023-04-11T02:36:34.915Z,21.38
2023-04-11T02:41:38.756Z,22.02
2023-04-11T02:51:43.245Z,23.10
2023-04-11T02:56:44.454Z,23.67
2023-04-11T03:01:45.573Z,22.63
2023-04-11T03:06:48.031Z,23.25
2023-04-11T03:11:48.234Z,25.05
2023-04-11T03:16:47.714Z,24.02
2023-04-11T03:21:48.866Z,22.30
2023-04-11T03:26:51.268Z,23.33
2023-04-11T03:31:53.524Z,23.73
2023-04-11T03:36:55.901Z,23.23
2023-04-11T03:41:58.474Z,22.00
2023-04-11T03:46:58.709Z,22.63
2023-04-11T03:52:07.802Z,22.58
2023-04-11T03:57:09.859Z,22.57
2023-04-11T04:02:21.846Z,22.95
2023-04-11T04:07:42.865Z,21.42
2023-04-11T04:12:55.764Z,23.35
2023-04-11T04:17:56.484Z,23.07
2023-04-11T04:23:08.457Z,22.70
2023-04-11T04:28:27.634Z,20.98
2023-04-11T04:33:33.339Z,19.73
2023-04-11T04:38:38.665Z,20.23
2023-04-11T04:43:42.229Z,18.98
2023-04-11T04:48:47.521Z,16.83
2023-04-11T04:53:51.216Z,17.17
2023-04-11T04:59:28.382Z,17.10
2023-04-11T05:04:43.388Z,16.33
2023-04-11T05:09:43.153Z,13.55
2023-04-11T05:15:03.560Z,16.00
2023-04-11T05:20:13.177Z,13.13
2023-04-11T05:25:35.265Z,14.60
2023-04-11T05:30:43.609Z,14.95
2023-04-11T05:35:46.046Z,14.32
2023-04-11T05:41:06.573Z,14.10
2023-04-11T05:46:44.369Z,12.57
2023-04-11T05:51:43.325Z,13.27
2023-04-11T05:56:46.439Z,13.50
2023-04-11T06:02:01.545Z,14.25
2023-04-11T06:07:07.059Z,13.98
2023-04-11T06:12:11.678Z,12.40
2023-04-11T06:17:11.215Z,12.55
2023-04-11T06:22:11.115Z,13.80
2023-04-11T06:27:12.873Z,13.18
2023-04-11T06:32:14.389Z,13.02
2023-04-11T06:37:19.583Z,12.07
2023-04-11T06:42:33.937Z,12.63
2023-04-11T06:47:38.590Z,13.02
2023-04-11T06:52:38.326Z,13.77
2023-04-11T06:57:39.475Z,14.25
2023-04-11T07:02:39.785Z,13.10
2023-04-11T07:07:45.251Z,12.93
2023-04-11T07:12:55.233Z,12.10
2023-04-11T07:17:55.804Z,13.00
2023-04-11T07:22:56.919Z,11.70
2023-04-11T07:28:15.563Z,11.30
2023-04-11T07:33:17.668Z,12.63
2023-04-11T07:38:32.820Z,11.63
2023-04-11T07:43:39.387Z,11.45
2023-04-11T07:48:37.253Z,11.98
2023-04-11T07:53:43.380Z,10.68
2023-04-11T08:04:18.072Z,11.07
2023-04-11T08:09:24.159Z,9.95
2023-04-11T08:14:22.933Z,10.45
2023-04-11T08:19:21.502Z,10.73
2023-04-11T08:24:29.021Z,10.25
2023-04-11T08:29:30.318Z,8.65
2023-04-11T08:34:34.748Z,10.63
2023-04-11T08:39:36.892Z,11.68
2023-04-11T08:44:38.410Z,12.20
2023-04-11T08:49:36.738Z,11.18
2023-04-11T08:54:36.019Z,9.90
2023-04-11T08:59:36.359Z,9.32
2023-04-11T09:04:43.294Z,9.10
2023-04-11T09:09:48.983Z,8.50
2023-04-11T09:14:50.410Z,5.53
2023-04-11T09:20:26.726Z,5.55
2023-04-11T09:25:27.503Z,5.45
2023-04-11T09:30:27.077Z,5.35
2023-04-11T09:35:29.038Z,6.40
2023-04-11T09:40:42.447Z,3.30
2023-04-11T09:45:53.549Z,3.03
2023-04-11T09:51:07.826Z,2.60
2023-04-11T09:56:12.291Z,2.35
2023-04-11T10:01:11.147Z,2.78
2023-04-11T10:06:26.769Z,2.78
2023-04-11T10:11:30.075Z,2.80
2023-04-11T10:16:33.194Z,3.30
2023-04-11T10:21:33.046Z,1.97
2023-04-11T10:26:58.027Z,2.75
2023-04-11T10:32:19.517Z,0.90
2023-04-11T10:37:33.601Z,1.33
2023-04-11T10:42:36.008Z,2.15
2023-04-11T10:47:34.413Z,1.80
2023-04-11T10:52:42.034Z,2.22
2023-04-11T10:58:06.726Z,2.10
2023-04-11T11:08:39.284Z,2.47
2023-04-11T11:13:48.080Z,3.03
2023-04-11T11:18:51.733Z,3.90
2023-04-11T11:23:59.750Z,5.60
2023-04-11T11:28:57.786Z,6.53
2023-04-11T11:34:18.478Z,7.72
2023-04-11T11:39:30.865Z,6.80
2023-04-11T11:44:31.269Z,4.60
2023-04-11T11:49:48.785Z,4.75
2023-04-11T11:54:48.368Z,4.35
2023-04-11T11:59:54.771Z,4.60
2023-04-11T12:05:00.522Z,4.35
2023-04-11T12:10:12.116Z,6.75
2023-04-11T12:15:16.193Z,6.70
2023-04-11T12:20:27.475Z,5.85
2023-04-11T12:25:31.439Z,6.07
2023-04-11T12:30:42.405Z,6.60
2023-04-11T12:35:40.466Z,6.60
2023-04-11T12:41:20.280Z,6.78
2023-04-11T12:46:36.409Z,7.30
2023-04-11T12:57:16.165Z,7.13
2023-04-11T13:02:42.075Z,8.07
2023-04-11T13:07:45.340Z,7.78
2023-04-11T13:13:05.363Z,8.23
2023-04-11T13:18:53.405Z,7.47
2023-04-11T13:29:21.616Z,8.80
2023-04-11T13:34:19.619Z,7.60
2023-04-11T13:39:30.482Z,8.90
2023-04-11T13:44:39.831Z,8.27
2023-04-11T13:49:42.467Z,6.90
2023-04-11T13:54:47.844Z,8.70
2023-04-11T13:59:49.983Z,7.72
2023-04-11T14:05:03.250Z,8.80
2023-04-11T14:10:05.558Z,8.07
2023-04-11T14:15:33.463Z,8.25
2023-04-11T14:20:38.730Z,9.30
2023-04-11T14:25:40.257Z,13.00
2023-04-11T14:30:42.558Z,10.73
2023-04-11T14:35:50.746Z,12.40
2023-04-11T14:40:52.638Z,10.95
2023-04-11T14:45:58.646Z,12.75
2023-04-11T14:51:04.818Z,14.32
2023-04-11T14:56:06.615Z,12.38
2023-04-11T15:01:04.816Z,11.40
2023-04-11T15:06:06.600Z,11.65
2023-04-11T15:11:08.309Z,13.15
2023-04-11T15:16:06.661Z,12.48
2023-04-11T15:21:05.193Z,13.68
2023-04-11T15:26:04.494Z,12.10
2023-04-11T15:31:02.916Z,14.23
2023-04-11T15:36:04.992Z,12.25
2023-04-11T15:41:03.733Z,12.43
2023-04-11T15:46:07.480Z,15.02
2023-04-11T15:51:11.336Z,11.88
2023-04-11T15:56:10.463Z,12.05
2023-04-11T16:01:21.107Z,11.85
2023-04-11T16:06:23.280Z,12.43
2023-04-11T16:11:28.163Z,12.05
2023-04-11T16:16:30.733Z,11.20
2023-04-11T16:28:00.511Z,11.82
2023-04-11T16:33:13.000Z,13.10
2023-04-11T16:38:16.469Z,13.55
2023-04-11T16:43:14.674Z,14.82
2023-04-11T16:48:15.207Z,14.73
2023-04-11T16:53:16.445Z,12.52
2023-04-11T16:58:18.368Z,10.95
2023-04-11T17:03:19.972Z,11.10
2023-04-11T17:08:18.420Z,11.30
2023-04-11T17:13:19.218Z,11.18
2023-04-11T17:18:19.903Z,11.00
2023-04-11T17:23:31.948Z,12.10
2023-04-11T17:28:41.201Z,13.02
2023-04-11T17:33:42.684Z,11.20
2023-04-11T17:38:44.074Z,10.95
2023-04-11T17:43:43.856Z,12.75
2023-04-11T17:48:45.094Z,14.85
2023-04-11T17:53:43.874Z,11.90
2023-04-11T17:58:48.851Z,11.50
2023-04-11T18:03:50.582Z,12.55
2023-04-11T18:08:51.363Z,12.70
2023-04-11T18:13:50.728Z,12.50
2023-04-11T18:18:49.536Z,13.30
2023-04-11T18:23:59.659Z,14.45
2023-04-11T18:29:03.654Z,12.30
2023-04-11T18:34:03.598Z,12.98
2023-04-11T18:39:07.419Z,13.18
2023-04-11T18:49:37.165Z,14.73
2023-04-11T18:54:44.329Z,17.42
2023-04-11T18:59:50.154Z,16.40
2023-04-11T19:04:59.709Z,16.10
2023-04-11T19:10:00.473Z,16.73
2023-04-11T19:15:02.755Z,17.40
2023-04-11T19:25:23.245Z,20.00
2023-04-11T19:30:22.189Z,18.83
2023-04-11T19:35:27.487Z,20.42
2023-04-11T19:40:28.262Z,19.25
2023-04-11T19:45:35.092Z,17.83
2023-04-11T19:50:35.159Z,16.35
2023-04-11T19:55:35.928Z,15.20
2023-04-11T20:00:38.217Z,15.48
2023-04-11T20:05:38.205Z,17.83
2023-04-11T20:10:39.463Z,16.15
2023-04-11T20:15:41.149Z,16.33
2023-04-11T20:20:40.677Z,16.98
2023-04-11T20:25:39.482Z,17.67
2023-04-11T20:30:43.580Z,18.98
2023-04-11T20:35:46.929Z,18.55
2023-04-11T20:40:52.404Z,19.30
2023-04-11T20:45:56.153Z,20.15
2023-04-11T20:51:02.087Z,13.75
2023-04-11T20:56:04.686Z,11.77
2023-04-11T21:01:06.181Z,11.80
2023-04-11T21:06:07.675Z,11.48
2023-04-11T21:11:06.538Z,12.07
2023-04-11T21:16:15.716Z,10.57
2023-04-11T21:21:14.735Z,10.13
2023-04-11T21:26:17.428Z,9.93
2023-04-11T21:31:17.637Z,10.32
2023-04-11T21:36:19.646Z,10.25
2023-04-11T21:41:20.809Z,12.07
2023-04-11T21:46:23.502Z,15.95
2023-04-11T21:51:26.874Z,15.20
2023-04-11T21:56:26.218Z,15.73
2023-04-11T22:01:29.297Z,17.08
2023-04-11T22:06:33.375Z,17.33
2023-04-11T22:11:42.759Z,18.02
2023-04-11T22:16:44.420Z,16.50
2023-04-11T22:21:48.736Z,14.90
2023-04-11T22:31:52.461Z,14.65
2023-04-11T22:36:57.947Z,14.63
2023-04-11T22:41:56.765Z,15.65
2023-04-11T22:47:25.454Z,15.27
2023-04-11T22:52:28.421Z,14.25
2023-04-11T22:57:29.284Z,14.07
2023-04-11T23:02:32.060Z,12.95
2023-04-11T23:07:34.942Z,13.50
2023-04-11T23:12:35.020Z,13.80
2023-04-11T23:17:38.098Z,14.05
2023-04-11T23:22:37.365Z,14.13
2023-04-11T23:27:39.066Z,13.90
2023-04-11T23:32:47.533Z,14.25
2023-04-11T23:37:50.129Z,14.65
2023-04-11T23:42:51.724Z,14.63
2023-04-11T23:47:54.841Z,14.07
2023-04-11T23:52:57.651Z,14.40
2023-04-11T23:57:58.691Z,12.95
